Terminal Aerodrome Forecast
Issued by NWS

Home | Current Version | Previous Version | Text Only | Print | Product List | Glossary On
Versions: 1 2 3 4 5 6 7 8 9 10 11 12
000
FTUS45 KGJT 221735
TAFCNY
TAF
KCNY 221735Z 2218/2318 VRB04KT P6SM SCT100 BKN200
     FM222200 24007KT P6SM SCT100 BKN200
     FM230200 17006KT P6SM SCT100 BKN200
     FM230600 11004KT P6SM SCT200=

USA.gov is the U.S. government's official web portal to all federal, state and local government web resources and services.